createdAt,value
2022-11-04T00:02:09.910Z,52.54
2022-11-04T00:07:23.932Z,52.12
2022-11-04T00:12:28.812Z,52.90
2022-11-04T00:17:27.815Z,52.69
2022-11-04T00:22:45.435Z,52.60
2022-11-04T00:28:01.835Z,54.08
2022-11-04T00:33:32.697Z,53.34
2022-11-04T00:38:32.874Z,52.99
2022-11-04T00:43:31.659Z,52.94
2022-11-04T00:48:30.426Z,52.84
2022-11-04T00:53:29.179Z,53.16
2022-11-04T00:58:29.777Z,53.96
2022-11-04T01:03:28.653Z,54.20
2022-11-04T01:08:27.522Z,53.41
2022-11-04T01:13:26.393Z,54.85
2022-11-04T01:18:27.242Z,54.93
2022-11-04T01:23:26.109Z,54.29
2022-11-04T01:28:24.983Z,54.94
2022-11-04T01:33:25.111Z,54.82
2022-11-04T01:38:25.364Z,54.93
2022-11-04T01:43:25.210Z,54.82
2022-11-04T01:48:28.449Z,54.52
2022-11-04T01:53:31.609Z,54.63
2022-11-04T01:58:33.959Z,54.38
2022-11-04T02:03:37.838Z,53.99
2022-11-04T02:08:40.643Z,53.95
2022-11-04T02:13:39.633Z,53.92
2022-11-04T02:18:52.650Z,54.30
2022-11-04T02:24:11.887Z,54.87
2022-11-04T02:29:42.314Z,54.57
2022-11-04T02:34:51.815Z,54.45
2022-11-04T02:39:56.766Z,55.11
2022-11-04T02:45:09.229Z,54.44
2022-11-04T02:50:13.554Z,54.32
2022-11-04T02:55:19.582Z,54.38
2022-11-04T03:00:21.727Z,55.35
2022-11-04T03:05:23.801Z,55.43
2022-11-04T03:10:28.350Z,54.79
2022-11-04T03:15:33.031Z,54.44
2022-11-04T03:20:32.818Z,55.69
2022-11-04T03:25:38.165Z,55.90
2022-11-04T03:30:43.954Z,55.61
2022-11-04T03:35:45.027Z,55.17
2022-11-04T03:40:44.133Z,55.41
2022-11-04T03:45:44.968Z,55.37
2022-11-04T03:50:47.001Z,55.64
2022-11-04T03:56:02.723Z,55.12
2022-11-04T04:01:15.217Z,54.88
2022-11-04T04:06:18.885Z,54.65
2022-11-04T04:11:21.988Z,54.56
2022-11-04T04:16:27.930Z,55.39
2022-11-04T04:21:30.699Z,54.94
2022-11-04T04:26:49.346Z,55.24
2022-11-04T04:31:51.355Z,55.03
2022-11-04T04:36:55.840Z,55.17
2022-11-04T04:42:13.568Z,55.46
2022-11-04T04:47:20.276Z,56.64
2022-11-04T04:52:20.131Z,57.11
2022-11-04T04:57:19.074Z,57.38
2022-11-04T05:02:19.412Z,58.29
2022-11-04T05:07:19.386Z,58.12
2022-11-04T05:12:18.599Z,58.74
2022-11-04T05:17:19.407Z,59.94
2022-11-04T05:22:18.121Z,59.75
2022-11-04T05:27:16.837Z,60.64
2022-11-04T05:32:15.701Z,61.37
2022-11-04T05:37:16.055Z,61.59
2022-11-04T05:42:14.861Z,61.44
2022-11-04T05:47:14.077Z,61.32
2022-11-04T05:52:13.151Z,60.42
2022-11-04T05:57:13.687Z,60.87
2022-11-04T06:02:15.443Z,61.28
2022-11-04T06:07:14.353Z,60.97
2022-11-04T06:12:21.941Z,60.08
2022-11-04T06:17:26.530Z,59.75
2022-11-04T06:22:26.457Z,59.11
2022-11-04T06:27:28.282Z,58.41
2022-11-04T06:32:32.362Z,58.13
2022-11-04T06:37:35.021Z,58.38
2022-11-04T06:42:36.748Z,57.96
2022-11-04T06:47:39.489Z,57.94
2022-11-04T06:52:42.375Z,57.45
2022-11-04T06:57:46.500Z,57.22
2022-11-04T07:02:52.192Z,56.91
2022-11-04T07:07:56.763Z,56.72
2022-11-04T07:12:59.121Z,55.88
2022-11-04T07:17:59.997Z,55.24
2022-11-04T07:22:58.750Z,54.75
2022-11-04T07:28:02.345Z,54.64
2022-11-04T07:33:10.134Z,53.99
2022-11-04T07:38:09.093Z,53.33
2022-11-04T07:43:09.620Z,53.29
2022-11-04T07:48:10.771Z,52.57
2022-11-04T07:53:10.548Z,52.31
2022-11-04T07:58:11.166Z,52.28
2022-11-04T08:03:11.194Z,53.05
2022-11-04T08:08:10.294Z,52.96
2022-11-04T08:13:10.907Z,52.55
2022-11-04T08:18:10.669Z,52.18
2022-11-04T08:23:12.465Z,51.87
2022-11-04T08:28:17.685Z,51.51
2022-11-04T08:33:16.758Z,50.76
2022-11-04T08:38:16.153Z,49.58
2022-11-04T08:43:16.418Z,48.14
2022-11-04T08:48:16.627Z,46.06
2022-11-04T08:53:16.041Z,44.31
2022-11-04T08:58:16.373Z,42.40
2022-11-04T09:03:15.146Z,41.19
2022-11-04T09:08:13.927Z,39.35
2022-11-04T09:13:13.722Z,37.74
2022-11-04T09:18:13.860Z,37.82
2022-11-04T09:23:12.779Z,37.14
2022-11-04T09:28:11.958Z,36.29
2022-11-04T09:33:11.111Z,35.41
2022-11-04T09:38:11.381Z,35.93
2022-11-04T09:43:30.624Z,35.70
2022-11-04T09:48:33.809Z,34.39
2022-11-04T09:53:41.839Z,33.25
2022-11-04T09:58:40.882Z,32.58
2022-11-04T10:03:49.396Z,32.33
2022-11-04T10:09:03.110Z,32.60
2022-11-04T10:14:35.421Z,29.71
2022-11-04T10:19:49.552Z,29.49
2022-11-04T10:24:59.218Z,29.62
2022-11-04T10:30:02.324Z,28.29
2022-11-04T10:35:05.744Z,28.55
2022-11-04T10:40:19.351Z,27.66
2022-11-04T10:45:20.241Z,25.80
2022-11-04T10:50:29.415Z,25.86
2022-11-04T10:55:38.181Z,25.23
2022-11-04T11:00:39.121Z,25.43
2022-11-04T11:05:38.073Z,24.40
2022-11-04T11:10:38.503Z,24.74
2022-11-04T11:15:38.776Z,25.31
2022-11-04T11:20:39.526Z,25.02
2022-11-04T11:25:42.641Z,24.71
2022-11-04T11:30:57.418Z,25.87
2022-11-04T11:35:59.986Z,26.46
2022-11-04T11:41:24.267Z,26.68
2022-11-04T11:46:25.692Z,27.13
2022-11-04T11:51:31.676Z,26.93
2022-11-04T11:56:59.156Z,26.14
2022-11-04T12:02:12.337Z,25.26
2022-11-04T12:12:58.238Z,25.28
2022-11-04T12:18:10.228Z,24.41
2022-11-04T12:23:17.751Z,26.09
2022-11-04T12:28:28.945Z,27.27
2022-11-04T12:33:37.153Z,28.04
2022-11-04T12:38:52.851Z,28.92
2022-11-04T12:44:00.912Z,29.65
2022-11-04T12:49:22.120Z,29.57
2022-11-04T12:54:28.918Z,29.26
2022-11-04T12:59:45.515Z,30.54
2022-11-04T13:05:00.098Z,30.94
2022-11-04T13:10:06.310Z,32.29
2022-11-04T13:15:15.562Z,31.63
2022-11-04T13:20:24.346Z,31.22
2022-11-04T13:25:30.710Z,30.85
2022-11-04T13:30:37.942Z,29.45
2022-11-04T13:35:46.257Z,27.75
2022-11-04T13:41:27.192Z,28.22
2022-11-04T13:46:31.122Z,26.87
2022-11-04T13:51:42.377Z,27.76
2022-11-04T13:56:42.575Z,28.38
2022-11-04T14:01:43.166Z,29.20
2022-11-04T14:06:55.475Z,28.89
2022-11-04T14:12:20.363Z,29.41
2022-11-04T14:17:57.742Z,29.59
2022-11-04T14:23:00.265Z,30.11
2022-11-04T14:28:01.576Z,30.36
2022-11-04T14:33:01.361Z,30.59
2022-11-04T14:38:07.642Z,31.00
2022-11-04T14:43:07.082Z,31.89
2022-11-04T14:48:16.244Z,33.01
2022-11-04T14:53:23.500Z,33.47
2022-11-04T14:58:25.338Z,34.03
2022-11-04T15:08:46.751Z,36.75
2022-11-04T15:13:47.776Z,36.80
2022-11-04T15:18:47.635Z,37.58
2022-11-04T15:23:50.492Z,38.29
2022-11-04T15:28:50.366Z,39.07
2022-11-04T15:33:52.346Z,39.49
2022-11-04T15:38:56.552Z,40.27
2022-11-04T15:43:55.710Z,40.63
2022-11-04T15:49:06.749Z,40.88
2022-11-04T15:54:17.803Z,41.14
2022-11-04T15:59:20.510Z,41.11
2022-11-04T16:04:23.567Z,41.51
2022-11-04T16:09:28.197Z,41.93
2022-11-04T16:14:27.809Z,42.10
2022-11-04T16:19:29.703Z,42.47
2022-11-04T16:24:33.417Z,42.80
2022-11-04T16:29:34.889Z,42.96
2022-11-04T16:34:33.632Z,43.39
2022-11-04T16:39:33.791Z,43.27
2022-11-04T16:44:32.681Z,43.41
2022-11-04T16:49:31.431Z,43.74
2022-11-04T16:54:30.905Z,43.77
2022-11-04T16:59:31.206Z,44.01
2022-11-04T17:04:30.131Z,44.48
2022-11-04T17:09:28.855Z,44.17
2022-11-04T17:14:27.560Z,43.95
2022-11-04T17:19:33.437Z,43.94
2022-11-04T17:24:33.607Z,44.11
2022-11-04T17:29:32.482Z,44.79
2022-11-04T17:34:34.102Z,62.71
2022-11-04T17:39:33.001Z,49.50
2022-11-04T17:44:31.902Z,47.22
2022-11-04T17:49:32.147Z,45.98
2022-11-04T17:54:31.669Z,45.34
2022-11-04T17:59:36.327Z,45.16
2022-11-04T18:04:37.271Z,45.14
2022-11-04T18:09:36.497Z,44.44
2022-11-04T18:14:35.452Z,44.18
2022-11-04T18:19:34.247Z,44.17
2022-11-04T18:24:34.473Z,43.80
2022-11-04T18:29:33.372Z,43.71
2022-11-04T18:34:32.188Z,43.98
2022-11-04T18:39:31.063Z,43.52
2022-11-04T18:44:31.290Z,43.77
2022-11-04T18:49:30.446Z,44.05
2022-11-04T18:54:31.504Z,43.93
2022-11-04T18:59:31.692Z,43.66
2022-11-04T19:04:30.493Z,43.65
2022-11-04T19:09:45.935Z,43.88
2022-11-04T19:14:46.928Z,43.98
2022-11-04T19:19:46.206Z,44.26
2022-11-04T19:24:46.136Z,44.28
2022-11-04T19:29:46.507Z,44.08
2022-11-04T19:34:45.885Z,44.74
2022-11-04T19:39:44.792Z,44.51
2022-11-04T19:44:43.668Z,44.80
2022-11-04T19:49:43.914Z,44.61
2022-11-04T19:54:42.842Z,44.11
2022-11-04T19:59:41.687Z,44.99
2022-11-04T20:04:40.638Z,45.13
2022-11-04T20:09:40.994Z,45.61
2022-11-04T20:14:39.724Z,45.82
2022-11-04T20:19:38.605Z,45.81
2022-11-04T20:24:37.538Z,45.66
2022-11-04T20:29:37.900Z,45.41
2022-11-04T20:34:36.795Z,45.56
2022-11-04T20:39:35.677Z,45.57
2022-11-04T20:44:34.697Z,46.09
2022-11-04T20:49:34.933Z,46.05
2022-11-04T20:54:33.908Z,45.64
2022-11-04T20:59:32.629Z,46.17
2022-11-04T21:04:35.924Z,46.38
2022-11-04T21:09:39.063Z,46.04
2022-11-04T21:14:38.056Z,46.15
2022-11-04T21:19:36.811Z,46.26
2022-11-04T21:24:39.426Z,46.29
2022-11-04T21:29:38.364Z,46.58
2022-11-04T21:34:37.259Z,46.54
2022-11-04T21:39:37.512Z,46.89
2022-11-04T21:44:36.335Z,46.95
2022-11-04T21:49:35.144Z,46.90
2022-11-04T21:54:34.021Z,47.04
2022-11-04T21:59:34.283Z,46.87
2022-11-04T22:04:33.005Z,47.30
2022-11-04T22:09:31.772Z,47.06
2022-11-04T22:14:30.718Z,47.00
2022-11-04T22:19:30.820Z,47.69
2022-11-04T22:24:29.624Z,48.26
2022-11-04T22:29:28.316Z,48.42
2022-11-04T22:34:27.135Z,48.28
2022-11-04T22:39:27.509Z,48.00
2022-11-04T22:44:26.635Z,47.80
2022-11-04T22:49:25.381Z,48.48
2022-11-04T22:54:24.108Z,49.14
2022-11-04T22:59:24.342Z,49.38
2022-11-04T23:04:23.141Z,49.29
2022-11-04T23:09:22.059Z,49.25
2022-11-04T23:14:49.349Z,49.75
2022-11-04T23:19:48.234Z,49.71
2022-11-04T23:25:04.342Z,49.69
2022-11-04T23:30:25.769Z,50.12
2022-11-04T23:35:44.757Z,50.25
2022-11-04T23:41:04.245Z,50.15
2022-11-04T23:46:21.888Z,50.26
2022-11-04T23:51:38.244Z,50.68
2022-11-04T23:56:54.339Z,51.88
